createdAt,value
2023-07-11T00:00:55.612Z,6.05
2023-07-11T00:03:28.177Z,7.60
2023-07-11T00:06:06.381Z,7.00
2023-07-11T00:08:38.553Z,5.10
2023-07-11T00:13:42.658Z,6.78
2023-07-11T00:16:15.824Z,7.65
2023-07-11T00:18:47.494Z,6.90
2023-07-11T00:21:19.065Z,7.28
2023-07-11T00:23:50.598Z,6.50
2023-07-11T00:26:22.148Z,8.18
2023-07-11T00:28:53.729Z,5.90
2023-07-11T00:31:25.405Z,10.45
2023-07-11T00:33:57.019Z,6.15
2023-07-11T00:36:28.591Z,4.93
2023-07-11T00:39:00.125Z,9.43
2023-07-11T00:41:32.788Z,5.65
2023-07-11T00:44:04.472Z,4.88
2023-07-11T00:46:35.985Z,6.75
2023-07-11T00:49:09.669Z,6.50
2023-07-11T00:51:46.433Z,7.80
2023-07-11T00:54:20.792Z,7.50
2023-07-11T00:56:52.770Z,7.70
2023-07-11T01:02:15.162Z,6.15
2023-07-11T01:04:46.874Z,7.32
2023-07-11T01:07:22.484Z,7.75
2023-07-11T01:09:54.157Z,6.57
2023-07-11T01:12:26.118Z,6.15
2023-07-11T01:17:34.873Z,6.30
2023-07-11T01:20:09.533Z,6.72
2023-07-11T01:22:41.131Z,7.18
2023-07-11T01:25:15.515Z,4.97
2023-07-11T01:27:48.930Z,5.68
2023-07-11T01:30:24.165Z,7.25
2023-07-11T01:32:55.843Z,7.93
2023-07-11T01:35:27.453Z,6.80
2023-07-11T01:37:59.211Z,5.43
2023-07-11T01:40:30.760Z,4.82
2023-07-11T01:43:03.052Z,8.10
2023-07-11T01:45:34.578Z,4.63
2023-07-11T01:48:06.338Z,5.03
2023-07-11T01:50:37.976Z,6.57
2023-07-11T01:53:09.665Z,7.97
2023-07-11T01:55:41.285Z,6.70
2023-07-11T01:58:12.811Z,8.68
2023-07-11T02:00:44.304Z,5.03
2023-07-11T02:03:15.907Z,5.40
2023-07-11T02:05:47.533Z,5.72
2023-07-11T02:08:19.274Z,5.22
2023-07-11T02:10:50.801Z,4.30
2023-07-11T02:13:22.371Z,6.50
2023-07-11T02:15:54.000Z,5.05
2023-07-11T02:18:25.695Z,6.30
2023-07-11T02:20:57.991Z,7.72
2023-07-11T02:23:29.546Z,5.93
2023-07-11T02:26:01.139Z,5.45
2023-07-11T02:28:32.719Z,5.88
2023-07-11T02:31:04.344Z,5.35
2023-07-11T02:33:35.871Z,7.72
2023-07-11T02:36:07.663Z,9.25
2023-07-11T02:41:10.748Z,8.60
2023-07-11T02:43:42.301Z,5.93
2023-07-11T02:46:15.647Z,5.13
2023-07-11T02:48:47.293Z,5.45
2023-07-11T02:51:19.077Z,7.93
2023-07-11T02:53:51.075Z,5.63
2023-07-11T02:58:54.203Z,5.00
2023-07-11T03:01:25.939Z,4.30
2023-07-11T03:03:57.529Z,6.60
2023-07-11T03:06:30.046Z,6.40
2023-07-11T03:09:01.581Z,7.88
2023-07-11T03:11:33.130Z,5.93
2023-07-11T03:14:04.721Z,5.03
2023-07-11T03:16:36.344Z,5.22
2023-07-11T03:19:07.864Z,5.45
2023-07-11T03:21:39.422Z,4.70
2023-07-11T03:24:11.394Z,7.07
2023-07-11T03:29:16.701Z,7.78
2023-07-11T03:31:48.234Z,6.65
2023-07-11T03:34:19.754Z,9.30
2023-07-11T03:36:51.358Z,5.03
2023-07-11T03:39:22.955Z,6.40
2023-07-11T03:41:54.528Z,9.32
2023-07-11T03:44:26.047Z,5.18
2023-07-11T03:46:57.662Z,7.65
2023-07-11T03:49:29.188Z,5.57
2023-07-11T03:52:00.715Z,6.82
2023-07-11T03:54:32.222Z,6.85
2023-07-11T03:57:03.840Z,8.00
2023-07-11T03:59:35.408Z,5.57
2023-07-11T04:02:07.027Z,9.48
2023-07-11T04:04:38.553Z,7.35
2023-07-11T04:07:10.236Z,7.25
2023-07-11T04:09:41.959Z,5.55
2023-07-11T04:12:13.521Z,5.25
2023-07-11T04:14:45.212Z,7.47
2023-07-11T04:17:16.798Z,5.22
2023-07-11T04:19:48.390Z,9.60
2023-07-11T04:22:20.748Z,7.40
2023-07-11T04:24:52.258Z,6.72
2023-07-11T04:27:26.055Z,9.85
2023-07-11T04:29:57.585Z,7.43
2023-07-11T04:32:30.076Z,6.93
2023-07-11T04:35:01.638Z,7.70
2023-07-11T04:37:33.340Z,6.78
2023-07-11T04:40:05.385Z,14.45
2023-07-11T04:45:09.975Z,7.17
2023-07-11T04:47:41.910Z,6.35
2023-07-11T04:52:45.432Z,6.65
2023-07-11T04:55:17.047Z,6.55
2023-07-11T04:57:48.926Z,10.77
2023-07-11T05:00:20.462Z,11.43
2023-07-11T05:02:52.025Z,8.70
2023-07-11T05:05:23.711Z,6.95
2023-07-11T05:07:55.233Z,6.05
2023-07-11T05:10:26.798Z,6.47
2023-07-11T05:12:58.340Z,4.75
2023-07-11T05:15:29.975Z,6.60
2023-07-11T05:18:01.679Z,7.22
2023-07-11T05:20:33.327Z,7.00
2023-07-11T05:23:04.849Z,7.15
2023-07-11T05:25:38.626Z,7.32
2023-07-11T05:28:10.145Z,6.10
2023-07-11T05:30:41.709Z,8.48
2023-07-11T05:33:13.523Z,6.20
2023-07-11T05:36:03.942Z,6.55
2023-07-11T05:38:35.831Z,5.75
2023-07-11T05:41:07.371Z,5.85
2023-07-11T05:43:38.915Z,5.07
2023-07-11T05:46:10.869Z,4.40
2023-07-11T05:48:42.634Z,6.30
2023-07-11T05:51:18.059Z,12.27
2023-07-11T05:53:52.774Z,6.95
2023-07-11T05:56:24.962Z,5.95
2023-07-11T05:58:56.536Z,7.93
2023-07-11T06:01:31.145Z,8.13
2023-07-11T06:04:04.211Z,7.68
2023-07-11T06:06:42.760Z,5.30
2023-07-11T06:09:20.048Z,6.53
2023-07-11T06:11:51.681Z,4.47
2023-07-11T06:14:24.323Z,6.55
2023-07-11T06:16:56.181Z,11.52
2023-07-11T06:19:27.798Z,15.32
2023-07-11T06:21:59.476Z,10.05
2023-07-11T06:24:31.071Z,14.15
2023-07-11T06:27:02.818Z,8.18
2023-07-11T06:29:34.434Z,8.65
2023-07-11T06:32:06.777Z,5.60
2023-07-11T06:34:38.394Z,7.20
2023-07-11T06:37:09.910Z,7.40
2023-07-11T06:39:41.603Z,4.43
2023-07-11T06:42:13.495Z,4.93
2023-07-11T06:47:16.458Z,6.47
2023-07-11T06:49:48.323Z,8.95
2023-07-11T06:54:51.530Z,10.43
2023-07-11T06:57:23.146Z,9.57
2023-07-11T06:59:54.664Z,6.15
2023-07-11T07:02:26.469Z,4.90
2023-07-11T07:07:29.827Z,6.18
2023-07-11T07:10:01.681Z,5.90
2023-07-11T07:15:05.097Z,7.30
2023-07-11T07:20:08.917Z,6.57
2023-07-11T07:22:40.579Z,6.85
2023-07-11T07:25:24.070Z,8.68
2023-07-11T07:27:56.141Z,5.35
2023-07-11T07:30:27.747Z,7.07
2023-07-11T07:32:59.456Z,7.72
2023-07-11T07:38:04.157Z,5.32
2023-07-11T07:40:35.828Z,15.55
2023-07-11T07:43:07.530Z,8.23
2023-07-11T07:48:10.854Z,6.18
2023-07-11T07:50:42.581Z,6.05
2023-07-11T07:53:15.230Z,6.80
2023-07-11T07:55:46.835Z,6.88
2023-07-11T07:58:30.375Z,7.32
2023-07-11T08:01:10.130Z,9.43
2023-07-11T08:03:42.504Z,5.15
2023-07-11T08:06:17.476Z,6.15
2023-07-11T08:08:50.973Z,7.35
2023-07-11T08:11:22.757Z,7.13
2023-07-11T08:16:34.297Z,17.08
2023-07-11T08:19:07.717Z,5.32
2023-07-11T08:21:39.672Z,7.88
2023-07-11T08:24:11.288Z,4.63
2023-07-11T08:26:43.775Z,6.55
2023-07-11T08:29:28.539Z,11.02
2023-07-11T08:32:02.044Z,9.68
2023-07-11T08:34:33.751Z,5.88
2023-07-11T08:39:38.075Z,8.80
2023-07-11T08:42:33.515Z,10.55
2023-07-11T08:45:16.226Z,5.55
2023-07-11T08:48:14.688Z,10.27
2023-07-11T08:51:10.884Z,7.57
2023-07-11T08:53:49.690Z,8.10
2023-07-11T08:56:41.119Z,7.78
2023-07-11T08:59:56.293Z,8.15
2023-07-11T09:02:52.501Z,5.47
2023-07-11T09:05:34.210Z,9.40
2023-07-11T09:08:05.969Z,6.63
2023-07-11T09:10:59.317Z,8.82
2023-07-11T09:13:55.833Z,4.30
2023-07-11T09:16:33.462Z,7.40
2023-07-11T09:19:20.043Z,8.63
2023-07-11T09:22:07.782Z,7.57
2023-07-11T09:25:17.699Z,9.18
2023-07-11T09:28:13.150Z,9.57
2023-07-11T09:30:56.720Z,9.43
2023-07-11T09:33:39.856Z,6.72
2023-07-11T09:36:25.238Z,4.28
2023-07-11T09:39:15.557Z,7.05
2023-07-11T09:41:56.996Z,7.10
2023-07-11T09:44:28.637Z,7.03
2023-07-11T09:49:38.606Z,8.43
2023-07-11T09:52:14.892Z,9.20
2023-07-11T09:57:22.249Z,7.05
2023-07-11T10:02:53.063Z,10.80
2023-07-11T10:05:25.778Z,7.35
2023-07-11T10:08:14.459Z,5.07
2023-07-11T10:10:54.483Z,8.70
2023-07-11T10:13:37.942Z,11.48
2023-07-11T10:16:19.306Z,9.40
2023-07-11T10:18:52.635Z,8.32
2023-07-11T10:21:31.811Z,10.93
2023-07-11T10:24:04.086Z,11.70
2023-07-11T10:26:39.563Z,9.38
2023-07-11T10:29:25.203Z,11.45
2023-07-11T10:32:02.086Z,6.95
2023-07-11T10:34:44.905Z,9.88
2023-07-11T10:37:57.747Z,8.95
2023-07-11T10:40:34.088Z,8.82
2023-07-11T10:43:27.648Z,8.27
2023-07-11T10:46:07.360Z,8.05
2023-07-11T10:48:55.813Z,12.98
2023-07-11T10:51:40.034Z,9.55
2023-07-11T10:54:39.232Z,4.88
2023-07-11T10:57:44.117Z,8.00
2023-07-11T11:00:20.173Z,9.52
2023-07-11T11:03:09.239Z,9.15
2023-07-11T11:06:06.877Z,7.43
2023-07-11T11:09:00.878Z,8.88
2023-07-11T11:12:04.263Z,5.90
2023-07-11T11:15:08.932Z,6.55
2023-07-11T11:18:01.929Z,6.53
2023-07-11T11:21:19.556Z,12.05
2023-07-11T11:24:02.418Z,6.97
2023-07-11T11:26:52.434Z,10.90
2023-07-11T11:29:29.712Z,6.82
2023-07-11T11:32:10.434Z,7.15
2023-07-11T11:35:24.640Z,5.85
2023-07-11T11:38:20.837Z,9.30
2023-07-11T11:40:59.883Z,7.35
2023-07-11T11:43:35.671Z,8.48
2023-07-11T11:51:36.860Z,7.20
2023-07-11T11:54:20.379Z,9.30
2023-07-11T11:56:59.426Z,9.57
2023-07-11T11:59:32.752Z,10.23
2023-07-11T12:02:16.188Z,6.32
2023-07-11T12:05:18.368Z,5.45
2023-07-11T12:08:26.592Z,8.48
2023-07-11T12:11:21.495Z,5.00
2023-07-11T12:14:26.866Z,6.13
2023-07-11T12:16:59.429Z,10.45
2023-07-11T12:19:41.334Z,6.55
2023-07-11T12:22:15.034Z,8.20
2023-07-11T12:24:59.385Z,9.50
2023-07-11T12:27:30.844Z,7.00
2023-07-11T12:30:23.317Z,9.57
2023-07-11T12:32:58.842Z,11.05
2023-07-11T12:35:37.144Z,8.32
2023-07-11T12:38:15.619Z,7.70
2023-07-11T12:41:13.312Z,10.57
2023-07-11T12:43:48.199Z,5.82
2023-07-11T12:46:28.667Z,5.60
2023-07-11T12:49:01.234Z,6.80
2023-07-11T12:51:39.301Z,8.82
2023-07-11T12:54:10.792Z,12.55
2023-07-11T12:56:45.511Z,7.82
2023-07-11T12:59:29.554Z,8.23
2023-07-11T13:02:05.496Z,9.85
2023-07-11T13:05:04.683Z,11.50
2023-07-11T13:07:37.610Z,7.35
2023-07-11T13:10:25.017Z,8.15
2023-07-11T13:12:57.098Z,6.97
2023-07-11T13:15:29.035Z,5.90
2023-07-11T13:18:01.008Z,6.45
2023-07-11T13:20:36.973Z,10.38
2023-07-11T13:23:11.320Z,6.68
2023-07-11T13:25:43.818Z,5.30
2023-07-11T13:28:23.084Z,8.30
2023-07-11T13:30:59.636Z,5.83
2023-07-11T13:38:53.701Z,7.15
2023-07-11T13:41:32.349Z,10.60
2023-07-11T13:44:14.358Z,7.20
2023-07-11T13:46:46.804Z,6.35
2023-07-11T13:49:35.036Z,6.90
2023-07-11T13:52:18.427Z,7.78
2023-07-11T13:54:56.428Z,8.20
2023-07-11T13:57:28.028Z,8.10
2023-07-11T14:00:11.436Z,7.68
2023-07-11T14:02:46.608Z,5.85
2023-07-11T14:05:26.894Z,11.82
2023-07-11T14:08:01.751Z,6.07
2023-07-11T14:10:33.345Z,8.07
2023-07-11T14:13:12.732Z,7.72
2023-07-11T14:15:44.465Z,8.23
2023-07-11T14:18:16.178Z,4.15
2023-07-11T14:20:47.729Z,5.07
2023-07-11T14:23:24.891Z,8.15
2023-07-11T14:25:56.749Z,5.63
2023-07-11T14:28:28.760Z,6.75
2023-07-11T14:31:02.850Z,10.85
2023-07-11T14:33:34.931Z,7.72
2023-07-11T14:36:06.838Z,6.95
2023-07-11T14:38:38.392Z,6.47
2023-07-11T14:41:12.898Z,7.93
2023-07-11T14:43:44.651Z,9.20
2023-07-11T14:46:16.203Z,5.43
2023-07-11T14:48:47.772Z,11.05
2023-07-11T14:51:19.322Z,11.38
2023-07-11T14:53:51.473Z,9.27
2023-07-11T14:58:58.264Z,8.43
2023-07-11T15:01:29.906Z,6.32
2023-07-11T15:12:05.420Z,6.40
2023-07-11T15:15:23.284Z,6.78
2023-07-11T15:17:32.807Z,4.63
2023-07-11T15:20:10.041Z,8.73
2023-07-11T15:22:44.143Z,11.43
2023-07-11T15:25:23.242Z,9.48
2023-07-11T15:27:55.115Z,6.32
2023-07-11T15:30:27.725Z,7.72
2023-07-11T15:32:59.390Z,5.32
2023-07-11T15:35:31.252Z,5.45
2023-07-11T15:38:02.892Z,4.07
2023-07-11T15:40:34.501Z,9.15
2023-07-11T15:43:06.076Z,6.68
2023-07-11T15:45:38.644Z,10.20
2023-07-11T15:48:11.353Z,5.05
2023-07-11T15:50:43.438Z,16.80
2023-07-11T15:53:15.056Z,6.05
2023-07-11T15:55:46.801Z,5.90
2023-07-11T15:58:26.298Z,5.43
2023-07-11T16:00:57.959Z,4.95
2023-07-11T16:03:30.565Z,8.63
2023-07-11T16:06:02.473Z,5.22
2023-07-11T16:08:37.561Z,6.38
2023-07-11T16:11:10.910Z,4.93
2023-07-11T16:13:43.417Z,8.13
2023-07-11T16:16:18.689Z,6.15
2023-07-11T16:18:50.680Z,5.97
2023-07-11T16:21:22.240Z,6.22
2023-07-11T16:23:53.812Z,8.82
2023-07-11T16:26:28.997Z,9.25
2023-07-11T16:29:01.477Z,11.90
2023-07-11T16:31:33.135Z,7.25
2023-07-11T16:34:30.891Z,5.80
2023-07-11T16:37:02.852Z,4.53
2023-07-11T16:39:34.919Z,6.43
2023-07-11T16:42:19.497Z,9.13
2023-07-11T16:44:51.091Z,7.93
2023-07-11T16:47:25.599Z,3.50
2023-07-11T16:49:57.713Z,8.95
2023-07-11T16:52:29.251Z,3.40
2023-07-11T16:55:01.005Z,10.60
2023-07-11T16:57:32.663Z,5.38
2023-07-11T17:00:05.898Z,6.60
2023-07-11T17:02:37.607Z,4.65
2023-07-11T17:05:09.665Z,6.72
2023-07-11T17:07:41.752Z,4.85
2023-07-11T17:10:14.172Z,6.00
2023-07-11T17:12:45.956Z,9.07
2023-07-11T17:15:19.045Z,8.50
2023-07-11T17:17:50.870Z,6.70
2023-07-11T17:20:22.472Z,8.55
2023-07-11T17:22:54.111Z,10.23
2023-07-11T17:25:25.769Z,8.40
2023-07-11T17:27:57.774Z,7.72
2023-07-11T17:30:29.374Z,9.40
2023-07-11T17:33:00.992Z,6.28
2023-07-11T17:35:32.584Z,6.75
2023-07-11T17:38:05.142Z,6.85
2023-07-11T17:40:36.717Z,6.78
2023-07-11T17:43:19.968Z,6.80
2023-07-11T17:46:01.341Z,12.00
2023-07-11T17:48:44.250Z,6.65
2023-07-11T17:51:16.944Z,5.72
2023-07-11T17:53:49.972Z,13.30
2023-07-11T17:56:21.508Z,6.13
2023-07-11T17:58:53.628Z,9.05
2023-07-11T18:01:26.337Z,6.78
2023-07-11T18:03:58.007Z,6.72
2023-07-11T18:06:29.654Z,12.00
2023-07-11T18:09:01.260Z,8.43
2023-07-11T18:11:33.068Z,5.50
2023-07-11T18:14:06.610Z,7.07
2023-07-11T18:16:38.554Z,12.18
2023-07-11T18:19:10.979Z,11.05
2023-07-11T18:21:42.518Z,9.32
2023-07-11T18:24:14.112Z,12.20
2023-07-11T18:26:45.643Z,12.23
2023-07-11T18:29:17.185Z,6.68
2023-07-11T18:31:48.848Z,8.68
2023-07-11T18:34:21.589Z,6.53
2023-07-11T18:36:53.870Z,9.20
2023-07-11T18:39:26.449Z,7.80
2023-07-11T18:41:58.867Z,6.93
2023-07-11T18:44:30.461Z,9.95
2023-07-11T18:47:02.022Z,6.90
2023-07-11T18:49:33.582Z,7.18
2023-07-11T18:52:09.276Z,9.10
2023-07-11T18:54:40.882Z,5.75
2023-07-11T18:57:16.761Z,6.97
2023-07-11T18:59:48.765Z,8.10
2023-07-11T19:02:25.034Z,7.80
2023-07-11T19:04:59.738Z,6.68
2023-07-11T19:07:34.073Z,8.20
2023-07-11T19:10:16.977Z,7.90
2023-07-11T19:12:49.350Z,6.32
2023-07-11T19:15:26.434Z,9.10
2023-07-11T19:18:03.155Z,5.75
2023-07-11T19:20:40.095Z,9.82
2023-07-11T19:23:21.300Z,10.07
2023-07-11T19:25:54.732Z,11.88
2023-07-11T19:28:31.617Z,8.50
2023-07-11T19:31:03.540Z,4.97
2023-07-11T19:33:35.169Z,8.68
2023-07-11T19:36:15.413Z,17.98
2023-07-11T19:38:47.060Z,6.93
2023-07-11T19:41:20.436Z,7.60
2023-07-11T19:43:51.997Z,6.90
2023-07-11T19:48:56.314Z,12.90
2023-07-11T19:51:27.837Z,9.38
2023-07-11T19:56:30.955Z,6.05
2023-07-11T19:59:03.689Z,12.73
2023-07-11T20:01:35.409Z,14.02
2023-07-11T20:06:38.578Z,17.30
2023-07-11T20:11:41.666Z,20.55
2023-07-11T20:16:44.793Z,14.48
2023-07-11T20:19:16.401Z,7.80
2023-07-11T20:24:19.325Z,5.90
2023-07-11T20:29:22.642Z,13.88
2023-07-11T20:34:25.600Z,20.42
2023-07-11T20:39:28.563Z,8.43
2023-07-11T20:44:31.563Z,9.80
2023-07-11T20:47:04.145Z,7.03
2023-07-11T20:49:37.162Z,6.32
2023-07-11T20:52:12.125Z,9.38
2023-07-11T20:54:43.745Z,8.13
2023-07-11T20:59:49.138Z,6.40
2023-07-11T21:02:20.724Z,6.82
2023-07-11T21:07:25.166Z,6.85
2023-07-11T21:09:58.433Z,9.90
2023-07-11T21:15:01.646Z,9.55
2023-07-11T21:17:33.976Z,9.05
2023-07-11T21:20:06.917Z,6.85
2023-07-11T21:22:38.825Z,5.93
2023-07-11T21:25:10.874Z,8.80
2023-07-11T21:27:42.442Z,15.23
2023-07-11T21:30:24.032Z,7.00
2023-07-11T21:38:00.486Z,8.88
2023-07-11T21:40:36.967Z,135.50
2023-07-11T21:43:09.103Z,105.57
2023-07-11T21:45:41.335Z,115.13
2023-07-11T21:48:22.840Z,30.88
2023-07-11T21:50:54.444Z,9.93
2023-07-11T21:53:31.240Z,12.98
2023-07-11T21:56:15.867Z,9.13
2023-07-11T21:58:47.949Z,11.63
2023-07-11T22:01:21.030Z,7.68
2023-07-11T22:03:52.896Z,11.32
2023-07-11T22:06:28.289Z,10.55
2023-07-11T22:09:00.146Z,5.90
2023-07-11T22:11:31.735Z,4.65
2023-07-11T22:14:06.437Z,7.25
2023-07-11T22:16:38.355Z,3.78
2023-07-11T22:19:13.755Z,6.15
2023-07-11T22:21:47.870Z,6.05
2023-07-11T22:24:19.478Z,4.80
2023-07-11T22:26:51.125Z,7.43
2023-07-11T22:29:22.728Z,3.83
2023-07-11T22:31:55.011Z,6.88
2023-07-11T22:34:26.627Z,6.15
2023-07-11T22:36:58.157Z,7.50
2023-07-11T22:39:29.774Z,9.50
2023-07-11T22:42:02.463Z,10.45
2023-07-11T22:44:33.980Z,15.18
2023-07-11T22:47:06.124Z,3.45
2023-07-11T22:49:37.708Z,4.28
2023-07-11T22:52:09.313Z,3.10
2023-07-11T22:54:41.108Z,4.80
2023-07-11T22:57:12.736Z,6.47
2023-07-11T22:59:44.240Z,7.03
2023-07-11T23:02:16.044Z,5.30
2023-07-11T23:04:47.629Z,7.05
2023-07-11T23:07:19.215Z,6.13
2023-07-11T23:09:50.784Z,4.72
2023-07-11T23:12:22.545Z,10.02
2023-07-11T23:14:54.147Z,4.05
2023-07-11T23:17:25.825Z,5.40
2023-07-11T23:19:57.572Z,8.80
2023-07-11T23:22:30.002Z,6.28
2023-07-11T23:25:04.113Z,5.45
2023-07-11T23:27:35.673Z,3.72
2023-07-11T23:30:15.687Z,8.63
2023-07-11T23:32:49.049Z,7.57
2023-07-11T23:35:24.309Z,6.32
2023-07-11T23:37:57.747Z,6.50
2023-07-11T23:40:46.518Z,5.07
2023-07-11T23:43:20.033Z,4.32
2023-07-11T23:45:53.281Z,6.72
2023-07-11T23:48:27.447Z,6.75
2023-07-11T23:51:01.793Z,8.20
2023-07-11T23:53:33.412Z,10.20
2023-07-11T23:56:25.331Z,4.30
2023-07-11T23:58:57.964Z,4.30
